Terminal Aerodrome Forecast
Issued by NWS Twin Cities, MN

Home | Current Version | Previous Version | Text Only | Print | Product List | Glossary On
Versions: 1 2 3 4 5 6 7 8 9 10 11 12 13 14 15 16 17 18 19 20 21 22 23 24 25 26 27 28 29 30 31
000
FTUS43 KMPX 291019 AAC
TAFMSP
TAF AMD
KMSP 291019Z 2910/3012 17004KT 6SM -SHRA BKN012 OVC025
     FM291200 20007KT P6SM BKN020 OVC040
     FM291500 23010KT 6SM -SHRA BR VCTS OVC025CB
      TEMPO 2916/2920 5SM -TSRA
     FM292000 32015G23KT P6SM VCSH BKN025
     FM292200 35015KT P6SM FEW030=

USA.gov is the U.S. government's official web portal to all federal, state and local government web resources and services.